sensor_id;sensor_type;location;lat;lon;timestamp;P1;P2;P0
82821;PMS5003;72574;46.842;-71.246;2024-02-21T20:10:18;13.79;13.79;9.26
82821;PMS5003;72574;46.842;-71.246;2024-02-21T20:10:30;12.58;11.32;8.16
82821;PMS5003;72574;46.842;-71.246;2024-02-21T20:12:54;13.33;12.89;9.22
82821;PMS5003;72574;46.842;-71.246;2024-02-21T20:15:20;10.11;10.11;7.72
82821;PMS5003;72574;46.842;-71.246;2024-02-21T20:17:45;15.89;15.33;10.33
82821;PMS5003;72574;46.842;-71.246;2024-02-21T20:20:10;12.44;11.83;9
82821;PMS5003;72574;46.842;-71.246;2024-02-21T20:22:36;14;13.17;7.89
82821;PMS5003;72574;46.842;-71.246;2024-02-21T20:25:03;10.05;9.68;6.11
82821;PMS5003;72574;46.842;-71.246;2024-02-21T20:27:27;12.61;11.17;7.33
82821;PMS5003;72574;46.842;-71.246;2024-02-21T20:29:53;14.22;11.44;8.33
82821;PMS5003;72574;46.842;-71.246;2024-02-21T20:32:19;9.44;9.28;6.89
82821;PMS5003;72574;46.842;-71.246;2024-02-21T20:34:44;15.06;11.83;9
82821;PMS5003;72574;46.842;-71.246;2024-02-21T20:37:11;24.29;15.86;9.29
82821;PMS5003;72574;46.842;-71.246;2024-02-21T20:39:34;17.78;16.22;10.33
82821;PMS5003;72574;46.842;-71.246;2024-02-21T20:42:00;25.33;17.05;10.29
82821;PMS5003;72574;46.842;-71.246;2024-02-21T20:44:28;15.78;14.11;8.06
82821;PMS5003;72574;46.842;-71.246;2024-02-21T20:46:55;14.05;13.05;8.26
82821;PMS5003;72574;46.842;-71.246;2024-02-21T20:49:21;15.11;12.84;8.58
82821;PMS5003;72574;46.842;-71.246;2024-02-21T20:51:47;16.06;15.11;10
82821;PMS5003;72574;46.842;-71.246;2024-02-21T20:54:12;16.68;14.79;9.32
82821;PMS5003;72574;46.842;-71.246;2024-02-21T20:56:40;14.89;13.39;10.28
82821;PMS5003;72574;46.842;-71.246;2024-02-21T20:59:06;15.47;13.47;10
82821;PMS5003;72574;46.842;-71.246;2024-02-21T21:01:32;16.28;14.17;9.22
82821;PMS5003;72574;46.842;-71.246;2024-02-21T21:03:56;17.33;13.11;9.78
82821;PMS5003;72574;46.842;-71.246;2024-02-21T21:06:22;18.4;17.75;11.95
82821;PMS5003;72574;46.842;-71.246;2024-02-21T21:08:48;12.74;12.74;10.58
82821;PMS5003;72574;46.842;-71.246;2024-02-21T21:11:12;17.95;14.89;9.63
82821;PMS5003;72574;46.842;-71.246;2024-02-21T21:13:46;17.68;14.82;8.95
82821;PMS5003;72574;46.842;-71.246;2024-02-21T21:16:11;15.1;15;9.67
82821;PMS5003;72574;46.842;-71.246;2024-02-21T21:18:35;10.9;10.55;6.2
82821;PMS5003;72574;46.842;-71.246;2024-02-21T21:21:02;20.62;16.38;9.62
82821;PMS5003;72574;46.842;-71.246;2024-02-21T21:23:26;17.76;16.76;10
82821;PMS5003;72574;46.842;-71.246;2024-02-21T21:25:51;17.38;13.95;8.38
82821;PMS5003;72574;46.842;-71.246;2024-02-21T21:28:18;15.71;14.48;9.81
82821;PMS5003;72574;46.842;-71.246;2024-02-21T21:30:43;14.73;14.55;9.5
82821;PMS5003;72574;46.842;-71.246;2024-02-21T21:33:09;15.33;13.86;9.76
82821;PMS5003;72574;46.842;-71.246;2024-02-21T21:35:35;18.33;14.81;10.1
82821;PMS5003;72574;46.842;-71.246;2024-02-21T21:37:59;18.76;15.38;9.14
82821;PMS5003;72574;46.842;-71.246;2024-02-21T21:40:24;19.19;14.67;9.71
82821;PMS5003;72574;46.842;-71.246;2024-02-21T21:42:51;17.38;14.86;9.33
82821;PMS5003;72574;46.842;-71.246;2024-02-21T21:45:17;15.1;13.67;11.33
82821;PMS5003;72574;46.842;-71.246;2024-02-21T21:47:43;20.73;17.77;11.77
82821;PMS5003;72574;46.842;-71.246;2024-02-21T21:50:08;27.05;16.6;9.7
82821;PMS5003;72574;46.842;-71.246;2024-02-21T21:52:32;14.29;13.62;10.81
82821;PMS5003;72574;46.842;-71.246;2024-02-21T21:54:59;19.05;14.33;8.95
82821;PMS5003;72574;46.842;-71.246;2024-02-21T21:57:25;16.67;14.29;10.14
82821;PMS5003;72574;46.842;-71.246;2024-02-21T21:59:49;23;19.24;9.48
82821;PMS5003;72574;46.842;-71.246;2024-02-21T22:02:16;17.67;14.14;8.71
82821;PMS5003;72574;46.842;-71.246;2024-02-21T22:04:40;17.91;14.91;10.45
82821;PMS5003;72574;46.842;-71.246;2024-02-21T22:07:06;13.33;12.71;8.62
82821;PMS5003;72574;46.842;-71.246;2024-02-21T22:09:34;17.86;15.38;11
82821;PMS5003;72574;46.842;-71.246;2024-02-21T22:12:02;16.62;14.81;10.19
82821;PMS5003;72574;46.842;-71.246;2024-02-21T22:14:28;20.23;16.36;9.23
82821;PMS5003;72574;46.842;-71.246;2024-02-21T22:16:52;24.44;16.78;9.94
82821;PMS5003;72574;46.842;-71.246;2024-02-21T22:19:18;15.9;14.86;9.57
82821;PMS5003;72574;46.842;-71.246;2024-02-21T22:21:49;15.18;13.36;9.95
82821;PMS5003;72574;46.842;-71.246;2024-02-21T22:24:13;19.24;16.62;9.24
82821;PMS5003;72574;46.842;-71.246;2024-02-21T22:26:38;17;15.62;11
82821;PMS5003;72574;46.842;-71.246;2024-02-21T22:29:03;35.42;21.11;12.79
82821;PMS5003;72574;46.842;-71.246;2024-02-21T22:31:31;27.85;21.4;12.95
82821;PMS5003;72574;46.842;-71.246;2024-02-21T22:33:56;27.95;21.24;12.62
82821;PMS5003;72574;46.842;-71.246;2024-02-21T22:36:21;21.43;20.52;12.81
82821;PMS5003;72574;46.842;-71.246;2024-02-21T22:38:48;34.24;26.48;15.1
82821;PMS5003;72574;46.842;-71.246;2024-02-21T22:41:12;25.76;23.57;15
82821;PMS5003;72574;46.842;-71.246;2024-02-21T22:43:37;33.86;28.43;17.81
82821;PMS5003;72574;46.842;-71.246;2024-02-21T22:46:03;27.95;26;15.14
82821;PMS5003;72574;46.842;-71.246;2024-02-21T22:48:30;23.1;21.81;11.52
82821;PMS5003;72574;46.842;-71.246;2024-02-21T22:50:52;23.14;20.9;13.67
82821;PMS5003;72574;46.842;-71.246;2024-02-21T22:53:20;32.37;24.16;12.74
82821;PMS5003;72574;46.842;-71.246;2024-02-21T22:55:49;25.81;23.38;14.43
82821;PMS5003;72574;46.842;-71.246;2024-02-21T22:58:15;38.9;28.55;15.95
82821;PMS5003;72574;46.842;-71.246;2024-02-21T23:00:41;29.38;23.81;13.52
82821;PMS5003;72574;46.842;-71.246;2024-02-21T23:03:09;23.43;19.24;13.24
82821;PMS5003;72574;46.842;-71.246;2024-02-21T23:05:37;30.45;23.45;14.5
82821;PMS5003;72574;46.842;-71.246;2024-02-21T23:10:46;22.45;20.91;13
82821;PMS5003;72574;46.842;-71.246;2024-02-21T23:13:13;27;24.57;13.9
82821;PMS5003;72574;46.842;-71.246;2024-02-21T23:15:39;19.52;18.48;11.33
82821;PMS5003;72574;46.842;-71.246;2024-02-21T23:18:05;37.81;28.33;18.14
82821;PMS5003;72574;46.842;-71.246;2024-02-21T23:20:30;45.24;32.38;18.95
82821;PMS5003;72574;46.842;-71.246;2024-02-21T23:22:56;34.33;29.81;17.67
82821;PMS5003;72574;46.842;-71.246;2024-02-21T23:25:22;61.55;49.45;29.45
82821;PMS5003;72574;46.842;-71.246;2024-02-21T23:27:48;60.35;43.15;24.9
82821;PMS5003;72574;46.842;-71.246;2024-02-21T23:30:16;52.57;41.86;25.67
82821;PMS5003;72574;46.842;-71.246;2024-02-21T23:32:41;41.24;35.52;20.24
82821;PMS5003;72574;46.842;-71.246;2024-02-21T23:35:05;58.29;41.86;25.38
82821;PMS5003;72574;46.842;-71.246;2024-02-21T23:37:31;51.4;39.9;22.55
82821;PMS5003;72574;46.842;-71.246;2024-02-21T23:39:57;44.53;35.11;19.37
82821;PMS5003;72574;46.842;-71.246;2024-02-21T23:42:23;58.9;41.38;22.33
82821;PMS5003;72574;46.842;-71.246;2024-02-21T23:44:46;59.05;42.05;24.19
82821;PMS5003;72574;46.842;-71.246;2024-02-21T23:47:13;41.19;36.76;21.9
82821;PMS5003;72574;46.842;-71.246;2024-02-21T23:49:40;51.62;36.43;19
82821;PMS5003;72574;46.842;-71.246;2024-02-21T23:52:04;40.29;35.24;20.71
82821;PMS5003;72574;46.842;-71.246;2024-02-21T23:54:30;49.4;35.05;19.1
82821;PMS5003;72574;46.842;-71.246;2024-02-21T23:56:54;57.35;39.8;23.1
82821;PMS5003;72574;46.842;-71.246;2024-02-21T23:59:20;42.52;34.95;20.76
